WMKM/MKZ METAR and TAF weather

Enter ICAO airport designator
Station Type Date Time Source
WMKM METAR 2021/07/28 20:00 UTC NOAA

WMKM 282000Z VRB05G18KT 5000 TSRA FEW008 FEW017CB SCT026 26/24 Q1010


Station Type Date Time Source
WMKM Decoded METAR 2021/07/28 20:00 UTC NOAA

Malacca, Malaysia (WMKM) 02-16N 102-15E 9M
Jul 28, 2021 - 04:00 PM EDT / 2021.07.28 2000 UTC
Wind: Variable at 6 MPH (5 KT) gusting to 21 MPH (18 KT):0
Visibility: 3 mile(s):0
Sky conditions: partly cloudy
Weather: rain with thunder; Cumulonimbus clouds observed
Temperature: 78 F (26 C)
Dew Point: 75 F (24 C)
Relative Humidity: 88%
Pressure (altimeter): 29.83 in. Hg (1010 hPa)
ob: WMKM 282000Z VRB05G18KT 5000 TSRA FEW008 FEW017CB SCT026 26/24 Q1010
cycle: 20

Station Type Date Time Source
WMKM TAF 2021/07/28 18:00 UTC NOAA

TAF WMKM 281700Z 2818/2918 VRB02KT 9999 FEW030
TEMPO 2820/2900 24007G18KT 4000 TSRA FEW010 FEW017CB SCT020

Example: see airport list